KCLM/CLM METAR and TAF weather

Enter ICAO airport designator
Station Type Date Time Source
KCLM METAR 2022/01/23 10:53 UTC NOAA

KCLM 231053Z AUTO 13007KT 9SM OVC006 04/02 A3044 RMK AO2 SLP310 T00390022


Station Type Date Time Source
KCLM Decoded METAR 2022/01/23 10:53 UTC NOAA

PORT ANGELES FAIRCHILD INTERNATIONAL , WA, United States (KCLM) 48-07N 123-30W 85M
Jan 23, 2022 - 05:53 AM EST / 2022.01.23 1053 UTC
Wind: from the SE (130 degrees) at 8 MPH (7 KT):0
Visibility: 9 mile(s):0
Sky conditions: overcast
Temperature: 39.0 F (3.9 C)
Dew Point: 36.0 F (2.2 C)
Relative Humidity: 88%
Pressure (altimeter): 30.44 in. Hg (1030 hPa)
ob: KCLM 231053Z AUTO 13007KT 9SM OVC006 04/02 A3044 RMK AO2 SLP310 T00390022
cycle: 11

Station Type Date Time Source
KCLM TAF 2022/01/23 12:33 UTC NOAA

TAF KCLM 231131Z 2312/2412 13007KT P6SM OVC006
FM231800 12005KT P6SM OVC010
FM240000 11005KT P6SM SCT250
FM240600 12005KT P6SM OVC010

Example: see airport list